Flight Track Log - Related Links

Times and Time Zones

All times are in EDT time to prevent confusion due to time zone crossing. See the SWA2236 flight status page for this flight to view local times or setup timezone preferences in your user account.

Time Position Orientation Groundspeed Altitude Reporting Facility
EDT Latitude Longitude Course Direction KTS MPH feet Rate Location/Type
Mon 09:13:18 AM 35.0606 -106.5178 70° East 201 231 7,900  Level Albuquerque Center
Mon 09:14:39 AM 35.1028 -106.5828 308° West 258 297 9,700 1,362 Climbing Albuquerque Center
Mon 09:15:39 AM 35.0956 -106.6858 265° West 287 330 11,100 1,934 Climbing Albuquerque Center
Mon 09:16:40 AM 35.1228 -106.7972 287° West 339 390 13,600 2,459 Climbing Albuquerque Center
Mon 09:17:41 AM 35.1483 -106.9375 283° West 367 422 16,100 2,311 Climbing Albuquerque Center
Mon 09:18:42 AM 35.1653 -107.0653 279° West 382 440 18,300 2,361 Climbing Albuquerque Center
Mon 09:19:43 AM 35.1833 -107.1983 279° West 399 459 20,900 2,361 Climbing Albuquerque Center
Mon 09:20:44 AM 35.2017 -107.3361 279° West 412 474 23,100 2,066 Climbing Albuquerque Center
Mon 09:21:45 AM 35.2214 -107.4764 280° West 416 479 25,100 1,869 Climbing Albuquerque Center
Mon 09:22:46 AM 35.2436 -107.6361 280° West 424 488 26,900 1,623 Climbing Albuquerque Center
Mon 09:23:47 AM 35.2628 -107.7775 279° West 435 501 28,400 1,475 Climbing Albuquerque Center
Mon 09:24:48 AM 35.2817 -107.9244 279° West 449 517 29,900 1,672 Climbing Albuquerque Center
Mon 09:25:49 AM 35.3044 -108.0958 279° West 456 525 31,800 1,820 Climbing Albuquerque Center
Mon 09:26:50 AM 35.3225 -108.2425 279° West 454 522 33,600 1,770 Climbing Albuquerque Center
Mon 09:27:51 AM 35.3414 -108.3847 279° West 445 512 35,400 1,820 Climbing Albuquerque Center
Mon 09:28:52 AM 35.3619 -108.5461 279° West 433 498 37,300 1,279 Climbing Albuquerque Center
Mon 09:29:53 AM 35.3806 -108.6817 280° West 424 488 38,000 344 Climbing Albuquerque Center
Mon 09:30:54 AM 35.4006 -108.8403 279° West 421 484 38,000  Level Albuquerque Center
Mon 09:31:55 AM 35.4172 -108.9767 279° West 420 483 38,000  Level Albuquerque Center
Mon 09:32:56 AM 35.4347 -109.1122 279° West 420 483 38,000  Level Albuquerque Center
Mon 09:33:58 AM 35.4536 -109.2708 278° West 419 482 38,000  Level Albuquerque Center
Mon 09:34:59 AM 35.4700 -109.4072 278° West 419 482 38,000  Level Albuquerque Center
Mon 09:36:00 AM 35.4867 -109.5442 279° West 421 484 38,000  Level Albuquerque Center
Mon 09:37:01 AM 35.5058 -109.7014 279° West 418 481 38,000  Level Albuquerque Center
Mon 09:38:02 AM 35.5211 -109.8356 278° West 415 478 38,000  Level Albuquerque Center
Mon 09:39:03 AM 35.5342 -109.9711 277° West 416 479 38,000  Level Albuquerque Center
Mon 09:40:04 AM 35.5525 -110.1281 278° West 416 479 38,000  Level Albuquerque Center
Mon 09:41:06 AM 35.5664 -110.2636 277° West 417 480 38,000  Level Albuquerque Center
Mon 09:42:07 AM 35.5831 -110.3992 279° West 417 480 38,000  Level Albuquerque Center
Mon 09:43:08 AM 35.6000 -110.5581 278° West 420 483 38,000  Level Albuquerque Center
Mon 09:44:09 AM 35.6142 -110.6956 277° West 422 486 38,000  Level Albuquerque Center
Mon 09:45:11 AM 35.6294 -110.8322 278° West 422 486 38,000  Level Albuquerque Center
Mon 09:46:12 AM 35.6472 -110.9933 278° West 424 488 38,000  Level Albuquerque Center
Mon 09:47:13 AM 35.6614 -111.1306 277° West 424 488 38,000  Level Albuquerque Center
Mon 09:48:14 AM 35.6817 -111.2903 279° West 424 488 38,000  Level Albuquerque Center
Mon 09:49:16 AM 35.6947 -111.4272 277° West 423 487 38,000  Level Albuquerque Center
Mon 09:50:17 AM 35.7072 -111.5767 276° West 425 489 38,000  Level Albuquerque Center
Mon 09:50:57 AM 35.7169 -111.6617 278° West 423 487 38,000  Level Los Angeles Center
Mon 09:51:59 AM 35.7306 -111.8075 277° West 429 494 38,000  Level Los Angeles Center
Mon 09:53:01 AM 35.7456 -111.9506 277° West 427 491 38,000  Level Los Angeles Center
Mon 09:54:02 AM 35.7622 -112.1233 277° West 428 493 38,000  Level Los Angeles Center
Mon 09:55:04 AM 35.7764 -112.2661 277° West 427 491 38,000  Level Los Angeles Center
Mon 09:56:05 AM 35.7900 -112.4094 277° West 426 490 38,000  Level Los Angeles Center
Mon 09:57:07 AM 35.8039 -112.5511 277° West 422 486 38,000  Level Los Angeles Center
Mon 09:58:22 AM 35.8167 -112.6942 276° West 426 490 38,000  Level Los Angeles Center
Mon 09:59:24 AM 35.8347 -112.8939 276° West 426 490 38,000  Level Los Angeles Center
Mon 10:00:26 AM 35.8481 -113.0358 277° West 424 488 38,000  Level Los Angeles Center
Mon 10:01:28 AM 35.8603 -113.1781 276° West 423 487 38,000  Level Los Angeles Center
Mon 10:02:29 AM 35.8739 -113.3200 277° West 422 486 38,000  Level Los Angeles Center
Mon 10:03:31 AM 35.8881 -113.4911 276° West 422 486 38,000  Level Los Angeles Center
Mon 10:04:33 AM 35.8994 -113.6308 276° West 424 488 38,000  Level Los Angeles Center
Mon 10:05:35 AM 35.9122 -113.7772 276° West 428 493 38,000  Level Los Angeles Center
Mon 10:06:36 AM 35.9233 -113.9239 275° West 429 494 38,000  Level Los Angeles Center
Mon 10:07:38 AM 35.9347 -114.0686 276° West 425 489 38,000  Level Los Angeles Center
Mon 10:08:40 AM 35.9461 -114.2156 276° West 427 491 38,000  Level Los Angeles Center
Mon 10:09:42 AM 35.9608 -114.3922 276° West 430 495 38,000  Level Los Angeles Center
Mon 10:10:43 AM 35.9703 -114.5375 275° West 427 491 38,000  Level Los Angeles Center
Mon 10:11:45 AM 35.9831 -114.6842 276° West 428 493 38,000  Level Los Angeles Center
Mon 10:12:47 AM 35.9942 -114.8297 275° West 425 489 38,000  Level Los Angeles Center
Mon 10:13:49 AM 36.0389 -114.9661 292° West 433 498 38,000  Level Los Angeles Center
Mon 10:14:51 AM 36.0986 -115.0972 299° West 437 503 38,000  Level Los Angeles Center
Mon 10:15:53 AM 36.1564 -115.2292 299° West 436 502 38,000  Level Los Angeles Center
Mon 10:16:54 AM 36.2250 -115.3878 298° West 435 501 38,000  Level Los Angeles Center
Mon 10:17:56 AM 36.2819 -115.5189 298° West 431 496 38,000  Level Los Angeles Center
Mon 10:18:58 AM 36.3333 -115.6408 298° West 440 506 38,000  Level Los Angeles Center
Mon 10:20:00 AM 36.4011 -115.8006 298° West 434 499 38,000  Level Los Angeles Center
Mon 10:21:02 AM 36.4539 -115.9250 298° West 425 489 38,000  Level Los Angeles Center
Mon 10:22:04 AM 36.5092 -116.0586 297° West 430 495 38,000  Level Los Angeles Center
Mon 10:23:06 AM 36.5658 -116.1883 299° West 427 491 38,000  Level Los Angeles Center
Mon 10:24:07 AM 36.6217 -116.3233 297° West 434 499 38,000  Level Los Angeles Center
Mon 10:25:09 AM 36.6761 -116.4556 297° West 432 497 38,000  Level Los Angeles Center
Mon 10:26:11 AM 36.7428 -116.6131 298° West 428 493 38,000  Level Los Angeles Center
Mon 10:27:13 AM 36.7994 -116.7422 299° West 425 489 38,000  Level Los Angeles Center
Mon 10:28:15 AM 36.8986 -116.8336 324° Northwest 439 505 38,000  Level Los Angeles Center
Mon 10:29:17 AM 37.0033 -116.9208 326° Northwest 448 516 38,000  Level Los Angeles Center
Mon 10:30:19 AM 37.0753 -117.0383 308° West 437 503 38,000  Level Los Angeles Center
Mon 10:31:22 AM 37.1067 -117.1783 286° West 419 482 38,000  Level Los Angeles Center
Mon 10:32:23 AM 37.1406 -117.3183 287° West 419 482 38,000  Level Los Angeles Center
Mon 10:33:24 AM 37.1736 -117.4594 286° West 419 482 38,000  Level Los Angeles Center
Mon 10:34:26 AM 37.2131 -117.6267 287° West 416 479 38,000  Level Los Angeles Center
Mon 10:35:28 AM 37.2450 -117.7672 286° West 417 480 38,000  Level Los Angeles Center
Mon 10:36:30 AM 37.2769 -117.9067 286° West 416 479 38,000  Level Los Angeles Center
Mon 10:37:32 AM 37.3092 -118.0472 286° West 416 479 38,000 -293 Level Los Angeles Center
Mon 10:38:33 AM 37.3411 -118.1878 286° West 417 480 37,400 -732 Descending Los Angeles Center
Mon 10:39:35 AM 37.3700 -118.3197 285° West 422 486 36,500 -677 Descending Los Angeles Center
Mon 10:40:37 AM 37.4069 -118.4867 286° West 417 480 36,000 -242 Descending Los Angeles Center
Mon 10:41:39 AM 37.4361 -118.6114 286° West 419 482 36,000  Level Los Angeles Center
Mon 10:42:41 AM 37.4722 -118.7811 285° West 420 483 36,000  Level Los Angeles Center
Mon 10:43:42 AM 37.5036 -118.9219 286° West 419 482 36,000 -44 Level Los Angeles Center
Mon 10:44:56 AM 37.5342 -119.0761 284° West 419 482 35,900 -44 Descending Oakland Center
Mon 10:45:57 AM 37.5647 -119.2172 285° West 419 482 35,900  Level Oakland Center
Mon 10:46:59 AM 37.5994 -119.3858 285° West 418 481 35,900 49 Level Oakland Center
Mon 10:48:00 AM 37.6303 -119.5244 286° West 419 482 36,000 49 Climbing Oakland Center
Mon 10:49:01 AM 37.6592 -119.6656 285° West 417 480 36,000  Level Oakland Center
Mon 10:50:03 AM 37.6886 -119.8081 285° West 418 481 36,000  Level Oakland Center
Mon 10:51:04 AM 37.7200 -119.9497 286° West 419 482 36,000 -443 Level Oakland Center
Mon 10:52:05 AM 37.7486 -120.0931 284° West 419 482 35,100 -1,869 Descending Oakland Center
Mon 10:53:06 AM 37.7786 -120.2311 285° West 411 473 32,200 -3,366 Descending Oakland Center
Mon 10:54:08 AM 37.8069 -120.3781 284° West 425 489 28,200 -3,268 Descending Oakland Center
Mon 10:55:09 AM 37.8383 -120.5269 285° West 434 499 25,500 -2,882 Descending Oakland Center
Mon 10:55:50 AM 37.8667 -120.6500 286° West 414 476 23,300 -2,779 Descending Northern Cal TRACON
Mon 10:56:44 AM 37.8500 -120.7833 261° West 397 457 21,100 -2,368 Descending Northern Cal TRACON
Mon 10:57:44 AM 37.8500 -120.9000 270° West 385 443 18,800 -2,200 Descending Northern Cal TRACON
Mon 10:58:44 AM 37.8333 -121.0333 261° West 352 405 16,700 -2,421 Descending Northern Cal TRACON
Mon 10:59:38 AM 37.8333 -121.1500 270° West 346 398 14,200 -2,333 Descending Northern Cal TRACON
Mon 11:00:32 AM 37.8000 -121.2500 247° West 379 436 12,500 -1,400 Descending Northern Cal TRACON
Mon 11:01:38 AM 37.7667 -121.3500 247° West 319 367 11,400 -1,050 Descending Northern Cal TRACON
Mon 11:02:32 AM 37.7333 -121.4500 247° West 301 346 10,400 -1,053 Descending Northern Cal TRACON
Mon 11:03:32 AM 37.7000 -121.5333 243° Southwest 283 326 9,400 -1,050 Descending Northern Cal TRACON
Mon 11:04:32 AM 37.6667 -121.6167 243° Southwest 273 314 8,300 -1,158 Descending Northern Cal TRACON
Mon 11:05:26 AM 37.6500 -121.7000 256° West 273 314 7,200 -1,211 Descending Northern Cal TRACON
Mon 11:06:26 AM 37.6167 -121.7833 243° Southwest 264 304 6,000 -1,200 Descending Northern Cal TRACON
Mon 11:07:26 AM 37.5833 -121.8667 243° Southwest 263 303 4,800 -1,053 Descending Northern Cal TRACON
Mon 11:08:20 AM 37.5667 -121.9500 256° West 251 289 4,000 -579 Descending Northern Cal TRACON
Mon 11:09:20 AM 37.5833 -122.0333 284° West 251 289 3,700 -737 Descending Northern Cal TRACON
Mon 11:10:14 AM 37.6167 -122.0833 310° West 223 257 2,600 -1,053 Descending Northern Cal TRACON
Mon 11:11:14 AM 37.6500 -122.1333 310° West 170 196 1,700 -850 Descending Northern Cal TRACON
Mon 11:12:14 AM 37.6667 -122.1667 302° West 137 158 900 -800 Descending Northern Cal TRACON
Mon 11:13:14 AM 37.7000 -122.2167 310° West 133 153 100 -800 Descending Northern Cal TRACON
Mon 11:15:00 AM 37.7167 -122.2167 270° West  Level FlightAware Approximate
Mon 11:22:00 AM 37.7213 -122.2207 270° West  Level Estimated

Login

Don't have an account? Register now (free) for customized features, flight alerts, and more!